| Station | Date | Time | Temp (°F) | RH (%) | Dew Pt (°F) | Wind Spd (mph) | Wind Dir (°) | Wind Gust (mph) | Latest Rain (In) | Daily Rain (In) | Daily Max Temp (°F) | Daily Min Temp (°F) |
|---|---|---|---|---|---|---|---|---|---|---|---|---|
| Montesol | 9/6/26 | 0315 | 46.0 0.2 | - | - | - | - | - | 0.00 | 0.00 | 46.7 2.4 | 44.3 1.9 |
| Pope Valley (Weeks Lake) | 9/6/26 | 0315 | 40.1 2.8 | 94 3 | 38.4 3.8 | 0.1 0.0 | WSW | 246 | 1.5 0.2 | 0.00 | 0.00 | 42.0 3.4 | 39.8 2.8 |
| Dollarhide Base | 9/6/26 | 0315 | 47.1 2.2 | 87 7 | 43.4 4.1 | 2.3 1.4 | ESE | 104 | 3.3 0.9 | 0.00 | 0.00 | 54.3 0.7 | 46.9 1.7 |
| Dollarhide 16A Remote | 9/6/26 | 0315 | 46.3 1.3 | 88 7 | 42.9 3.3 | - | - | - | - | - | 50.3 1.9 | 45.9 1.6 |
| Hardin Rd (Eakle) | 9/6/26 | 0315 | 44.2 1.8 | - | - | - | - | - | - | - | 47.8 1.4 | 43.9 2.1 |
| Angwin | 9/6/26 | 0315 | 55.6 3.7 | 62 21 | 42.8 4.2 | 0.9 1.4 | S | 169 | 4.6 1.3 | 0.00 | 0.00 | 56.5 2.1 | 54.8 3.3 |
| Lower Angwin (Pioneer) | 9/6/26 | 0315 | 36.4 6.4 | - | - | 0.1 0.1 | ESE | 118 | 0.6 1.9 | - | - | 37.5 8.6 | 35.8 5.7 |
| Las Posadas (Cal Fire) | 9/6/26 | 0315 | 49.6 1.0 | 83 8 | 44.7 3.4 | 6.7 4.6 | SSW | 210 | 8.3 5.6 | 0.00 | 0.00 | 53.4 0.9 | 48.4 1.0 |
| Lower Chiles Valley (Brown) | 9/6/26 | 0315 | 41.9 1.0 | 93 2 | 39.9 1.4 | 0.7 0.5 | ESE | 120 | 2.2 1.1 | 0.00 | 0.00 | 46.3 1.0 | 41.2 1.2 |
| Moss Creek Vineyard/Reservior | 9/6/26 | 0315 | 48.8 0.5 | 77 16 | 42.0 4.5 | - | - | - | 0.00 | 0.00 | 52.4 1.7 | 48.6 1.3 |
| Max | 55.6 | 94 | 44.7 | 6.7 | - | 8.3 | 0.00 | 0.00 | 56.5 | 54.8 | ||
| Avg | 45.6 | 83 | 42.0 | 1.8 | - | 3.4 | 0.00 | - | - | - | ||
| Min | 36.4 | 62 | 38.4 | 0.1 | - | 0.6 | 0.00 | 0.00 | 37.5 | 35.8 |
| Station | Date | Time | Temp (°F) | RH (%) | Dew Pt (°F) | Wind Spd (mph) | Wind Dir (°) | Wind Gust (mph) | Latest Rain (In) | Daily Rain (In) | Daily Max Temp (°F) | Daily Min Temp (°F) |
|---|---|---|---|---|---|---|---|---|---|---|---|---|
| Tenma (North Calistoga) | 9/6/26 | 0315 | 46.2 3.0 | - | - | - | - | - | 0.00 | 0.00 | 48.6 2.4 | 45.8 3.3 |
| Calistoga-Solari | 9/6/26 | 0315 | 44.6 2.2 | 94 1 | 42.9 2.6 | 1.0 0.3 | NNW | 327 | 2.1 0.5 | 0.00 | 0.00 | 48.7 3.3 | 44.0 2.5 |
| Calistoga-North | 9/6/26 | 0315 | 45.1 2.9 | 93 2 | 43.3 3.5 | - | - | - | 0.00 | 0.00 | 48.3 2.5 | 44.8 3.0 |
| Twomey Calistoga | 9/6/26 | 0315 | 40.5 4.4 | 94 4 | 38.9 3.3 | 1.0 0.3 | WNW | 289 | 1.7 0.4 | 0.00 | 0.00 | 44.7 8.5 | 40.4 4.5 |
| Paloma | 9/6/26 | 0315 | 43.6 6.5 | 94 2 | 41.9 6.0 | 1.3 0.3 | SW | 215 | 2.2 2.0 | 0.00 | 0.00 | 46.9 4.2 | 42.6 6.5 |
| Calistoga (Ranch 78) | 9/6/26 | 0315 | 42.2 4.7 | 87 3 | 38.5 5.5 | 0.0 0.0 | NW | 322 | 0.7 0.4 | 0.00 | 0.00 | 47.2 6.2 | 42.2 4.7 |
| Diamond Mtn (Schramsberg) | 9/6/26 | 0315 | 52.4 0.1 | 77 10 | 45.5 3.0 | - | - | - | 0.00 | 0.00 | 54.8 0.1 | 52.1 0.0 |
| Diamond Mtn (McEachran) | 9/6/26 | 0315 | 51.8 1.1 | 80 8 | 45.8 3.7 | - | - | - | - | - | 53.6 1.4 | 51.6 0.9 |
| Deer Park | 9/6/26 | 0315 | 52.3 1.5 | 87 5 | 48.8 0.2 | 1.1 1.6 | ENE | 68 | 2.0 1.9 | 0.00 | 0.00 | 54.6 3.2 | 52.2 1.6 |
| St. Helena-North | 9/6/26 | 0315 | 48.5 2.7 | 84 2 | 43.8 3.2 | 0.5 0.5 | NNW | 336 | 2.2 1.1 | 0.00 | 0.00 | 52.1 1.3 | 48.2 2.7 |
| St. Helena (NVV Office) | 9/6/26 | 0315 | 48.4 2.4 | - | - | 0.5 0.5 | NE | 52 | 1.5 1.5 | 0.00 | 0.00 | 52.9 3.3 | 48.2 2.2 |
| Tiara Fria (East St. Helena) | 9/6/26 | 0315 | 46.0 0.7 | 84 3 | 41.4 1.7 | 0.0 0.1 | NNW | 344 | 0.7 0.2 | 0.00 | 0.00 | 49.7 1.2 | 45.9 0.7 |
| Prisoner Winery | 9/6/26 | 0315 | 45.6 2.4 | 92 1 | 43.4 2.6 | 0.1 0.1 | NW | 313 | 1.1 1.1 | 0.00 | 0.00 | 49.3 0.9 | 45.3 2.1 |
| Rutherford Hill Estate | 9/6/26 | 0315 | 51.6 0.6 | 92 5 | 49.4 0.8 | 0.8 0.6 | E | 79 | 2.0 0.4 | 0.00 | 0.00 | 53.8 0.5 | 51.4 0.6 |
| Rutherford-North (Mee Ln) | 9/6/26 | 0315 | 44.6 0.1 | 88 3 | 41.2 0.7 | 0.8 0.7 | WNW | 289 | 2.0 1.1 | 0.00 | 0.00 | 47.9 0.9 | 44.2 0.0 |
| Rutherford (STS) | 9/6/26 | 0315 | 43.8 1.5 | 92 1 | 41.6 1.1 | 0.1 0.1 | NW | 306 | 1.0 0.3 | 0.00 | 0.00 | 48.9 0.6 | 43.8 0.1 |
| Silver Oak OV | 9/6/26 | 0315 | 44.1 0.7 | 91 0 | 41.8 0.8 | 1.0 0.4 | WSW | 254 | 1.4 0.1 | 0.00 | 0.00 | 51.6 3.2 | 43.9 0.7 |
| Oakville-NE (Ranch 88) | 9/6/26 | 0315 | 43.1 0.9 | 80 5 | 37.3 2.3 | 0.0 0.0 | N | 0 | 0.0 0.0 | 0.00 | 0.00 | 49.2 2.4 | 42.8 0.9 |
| Crossroads Ranch | 9/6/26 | 0315 | 44.7 0.6 | 88 0 | 41.4 0.4 | 0.0 0.5 | N | 0 | 0.0 1.6 | 0.00 | 0.00 | 51.7 3.4 | 44.6 0.6 |
| Oakville | 9/6/26 | 0315 | 44.2 1.0 | 88 1 | 40.8 1.3 | 0.5 0.5 | WSW | 246 | 1.6 1.6 | 0.00 | 0.00 | 50.7 2.8 | 44.1 0.8 |
| To Kalon Remote (TKKE) | 9/6/26 | 0315 | 44.2 1.8 | - | - | - | - | - | - | - | 48.9 0.4 | 44.1 1.7 |
| To Kalon | 9/6/26 | 0315 | 45.4 1.7 | 89 3 | 42.4 2.5 | 0.7 0.7 | WSW | 249 | 1.4 1.0 | 0.00 | 0.00 | 49.2 0.5 | 45.2 1.7 |
| To Kalon Remote (TKN5) | 9/6/26 | 0315 | 45.1 1.6 | - | - | - | - | - | - | - | 50.7 0.8 | 44.9 1.6 |
| Jump Rock | 9/6/26 | 0315 | 44.5 1.0 | 92 5 | 42.4 0.4 | 0.8 0.5 | ENE | 70 | 1.8 0.2 | 0.00 | 0.00 | 47.1 1.4 | 42.8 0.5 |
| State Lane Ranch | 9/6/26 | 0315 | 43.4 0.8 | 93 2 | 41.6 1.5 | 0.1 0.3 | NW | 304 | 0.8 0.1 | 0.00 | 0.00 | 50.1 2.2 | 43.1 0.8 |
| Yountville (Ranch 67) | 9/6/26 | 0315 | 44.6 0.2 | 88 0 | 41.3 0.3 | 0.9 0.9 | N | 351 | 1.4 0.6 | 0.00 | 0.00 | 50.3 2.8 | 44.6 0.0 |
| Borreo (Soda Canyon) | 9/6/26 | 0315 | 46.8 0.7 | 93 2 | 44.9 1.3 | 0.8 0.0 | NNW | 338 | 1.9 0.1 | 0.00 | 0.00 | 49.2 0.0 | 46.5 0.9 |
| Wappo Hill Floor | 9/6/26 | 0315 | 44.8 0.0 | 100 0 | 44.8 0.0 | 0.1 0.1 | W | 267 | 1.1 1.1 | 0.00 | 0.00 | 52.8 4.8 | 44.8 0.0 |
| Wappo Hill | 9/6/26 | 0315 | 51.8 0.7 | 90 0 | 49.0 0.7 | 1.8 1.4 | NW | 313 | 2.6 1.4 | 0.00 | 0.00 | 56.1 2.1 | 51.8 0.4 |
| Stags Leap Dist (Chimney Rock) | 9/6/26 | 0315 | 45.4 0.3 | 94 1 | 43.7 0.0 | 0.0 0.1 | E | 101 | 0.4 0.4 | 0.00 | 0.00 | 51.2 3.4 | 45.0 0.1 |
| Stags Leap Dist (Silverado Vineyards) | 9/6/26 | 0315 | 45.4 0.2 | 90 0 | 42.8 0.2 | 0.3 0.3 | NNW | 342 | 1.4 1.4 | 0.00 | 0.00 | 50.9 2.2 | 45.2 0.2 |
| Yountville-SE (Ranch 85) | 9/6/26 | 0315 | 47.0 0.2 | 91 2 | 44.5 0.2 | 0.0 0.0 | N | 0 | 0.0 0.0 | 0.00 | 0.00 | 52.4 2.7 | 46.6 0.1 |
| Yountville-South (Ranch 87) | 9/6/26 | 0315 | 47.1 1.3 | 90 2 | 44.2 0.9 | 0.0 0.0 | NNW | 328 | 0.8 0.8 | 0.00 | 0.00 | 50.6 1.5 | 46.1 0.7 |
| Max | 52.4 | 100 | 49.4 | 1.8 | - | 2.6 | 0.00 | 0.00 | 56.1 | 52.2 | ||
| Avg | 46.0 | 90 | 43.1 | 0.5 | - | 1.3 | 0.00 | - | - | - | ||
| Min | 40.5 | 77 | 37.3 | 0.0 | - | 0.0 | 0.00 | 0.00 | 44.7 | 40.4 |
| Station | Date | Time | Temp (°F) | RH (%) | Dew Pt (°F) | Wind Spd (mph) | Wind Dir (°) | Wind Gust (mph) | Latest Rain (In) | Daily Rain (In) | Daily Max Temp (°F) | Daily Min Temp (°F) |
|---|---|---|---|---|---|---|---|---|---|---|---|---|
| Mt. Veeder | 9/6/26 | 0315 | 55.5 0.1 | 62 14 | 42.9 5.3 | 0.5 0.2 | NNW | 329 | 1.5 0.4 | 0.00 | 0.00 | 60.5 3.8 | 55.1 1.3 |
| Soda Canyon | 9/6/26 | 0315 | 46.0 0.6 | 91 0 | 43.6 0.7 | 0.9 0.9 | N | 4 | 1.6 1.1 | 0.00 | 0.00 | 51.6 3.6 | 45.9 0.3 |
| Big Ranch Rd | 9/6/26 | 0315 | 47.1 0.1 | - | - | - | - | - | - | - | 51.4 1.2 | 47.0 0.2 |
| Oak Knoll-East (Ranch 53) | 9/6/26 | 0315 | 46.8 0.2 | 88 4 | 43.4 1.3 | 0.0 0.0 | WNW | 292 | 0.7 0.7 | 0.00 | 0.00 | 50.9 1.0 | 46.5 0.4 |
| Napa-NW (Ranch 54) | 9/6/26 | 0315 | 49.0 0.7 | 87 5 | 45.2 0.7 | 0.0 0.0 | N | 0 | 0.0 0.6 | 0.00 | 0.00 | 50.4 0.9 | 48.7 0.7 |
| Frisinger Napa-NW | 9/6/26 | 0315 | 46.4 1.4 | 92 1 | 44.3 1.7 | 0.5 0.1 | WSW | 241 | 1.7 0.1 | 0.00 | 0.00 | 49.9 1.1 | 46.2 1.4 |
| Napa-North (Ranch 29) | 9/6/26 | 0315 | 48.7 1.2 | 100 0 | 48.7 1.2 | 0.0 0.0 | NNW | 330 | 0.4 0.4 | 0.00 | 0.00 | 53.9 2.9 | 48.4 1.6 |
| Mount George (Napa East) | 9/6/26 | 0315 | 47.1 1.0 | 92 3 | 44.9 0.2 | 0.3 0.2 | ENE | 69 | 1.8 0.1 | 0.00 | 0.00 | 50.3 2.3 | 47.1 1.2 |
| Napa-East (Palmaz 300') | 9/6/26 | 0315 | 49.6 0.3 | 92 8 | 47.3 1.9 | 0.3 0.7 | ESE | 115 | 2.6 0.1 | 0.00 | 0.00 | 52.3 0.7 | 49.2 0.0 |
| Napa-East (Palmaz 1200') | 7/4/26 | 0630 | 49.8 0.1 | 72 2 | 40.8 1.0 | 0.2 0.5 | E | 79 | 2.0 0.4 | - | - | 51.0 1.7 | 48.0 0.9 |
| Napa-East (Palmaz 1400') | 9/6/26 | 0315 | 50.4 2.3 | 90 10 | 47.6 0.5 | 0.8 0.5 | SW | 235 | 2.7 0.3 | 0.00 | 0.00 | 52.2 0.6 | 49.7 2.1 |
| Wooden Valley | 9/6/26 | 0315 | 58.0 12.4 | 65 27 | 46.5 2.8 | 1.5 1.5 | NW | 305 | 5.4 4.3 | 0.00 | 0.00 | 58.7 11.9 | 49.0 4.0 |
| Napa-West Upper (Truchard) | 9/6/26 | 0315 | 51.8 0.5 | 0 0 | -64.9 0.4 | 1.4 0.9 | N | 3 | 3.9 1.4 | 0.00 | 0.00 | 53.0 1.5 | 51.3 0.9 |
| Napa-West Lower (Truchard) | 9/6/26 | 0315 | 42.6 0.9 | 88 1 | 39.3 1.2 | - | - | - | - | - | 46.8 1.2 | 42.5 0.7 |
| Sunset Rd | 9/6/26 | 0315 | 47.0 0.1 | 92 1 | 44.9 0.4 | 1.0 0.3 | W | 260 | 1.5 0.5 | 0.00 | 0.00 | 48.5 0.1 | 46.5 0.2 |
| Napa-South (Toyon Farms) | 9/6/26 | 0315 | 51.1 0.6 | 98 1 | 50.4 0.8 | 0.0 1.2 | N | 0 | 0.0 2.4 | 0.00 | 0.00 | 53.4 0.4 | 50.8 0.6 |
| Dealy Lane (Ranch 80) | 9/6/26 | 0315 | 47.2 0.5 | 91 1 | 44.9 0.7 | 0.4 0.0 | NNW | 336 | 2.0 0.2 | 0.00 | 0.00 | 51.1 0.6 | 47.2 0.5 |
| Carneros (Saintsbury) | 9/6/26 | 0315 | 46.7 0.2 | 96 1 | 45.6 0.6 | 1.7 0.9 | NW | 321 | 2.8 0.5 | 0.00 | 0.00 | 49.3 0.1 | 45.9 0.5 |
| Suscol Lower (Ranch 35) | 9/6/26 | 0315 | 51.8 0.5 | 91 7 | 49.2 1.5 | 2.0 0.7 | E | 81 | 5.0 0.1 | 0.00 | 0.00 | 52.9 1.3 | 50.8 0.1 |
| Suscol Mtn (Ranch 93) | 9/6/26 | 0315 | 53.8 0.1 | 87 10 | 50.0 2.9 | 2.1 1.0 | NNE | 13 | 3.3 0.1 | 0.00 | 0.00 | 55.3 0.5 | 53.7 0.0 |
| Suscol Upper (Ranch 92) | 9/6/26 | 0315 | 52.7 0.8 | 90 89 | 49.7 110.8 | 0.0 0.0 | ENE | 65 | 1.5 1.2 | 0.00 | 0.00 | 55.4 0.3 | 52.4 0.6 |
| Carneros (Mitsuko) | 9/6/26 | 0315 | 45.1 0.6 | - | - | - | - | - | - | - | 46.2 1.4 | 43.2 0.7 |
| Sugarloaf West | 9/6/26 | 0315 | 50.0 1.8 | 93 0 | 48.2 1.8 | 1.0 0.2 | N | 9 | 2.3 0.9 | 0.00 | 0.00 | 53.6 0.0 | 49.9 0.5 |
| Stanly (Ranch 45) | 9/6/26 | 0315 | 48.3 3.0 | 91 1 | 45.8 2.6 | 1.0 0.4 | NNW | 341 | 3.6 1.4 | 0.00 | 0.00 | 51.4 0.4 | 47.8 2.7 |
| Carneros (Las Amigas Rd) | 9/6/26 | 0315 | 48.9 1.4 | - | - | - | - | - | - | - | 50.8 1.5 | 48.0 1.6 |
| Carneros (Milton Rd) | 9/6/26 | 0315 | 47.7 0.3 | 91 0 | 45.1 0.4 | - | - | - | 0.00 | 0.00 | 51.8 0.9 | 46.2 0.7 |
| Carneros (Ranch 71) | 9/6/26 | 0315 | 53.1 1.4 | 91 2 | 50.7 1.9 | 1.9 0.0 | N | 351 | 2.9 0.5 | 0.00 | 0.00 | 55.2 0.6 | 52.7 1.6 |
| Carneros Upper (Ranch 81) | 9/6/26 | 0315 | 54.2 0.3 | 88 12 | 50.6 3.3 | 0.0 2.0 | N | 0 | 0.0 6.1 | - | - | 55.3 0.5 | 53.1 0.9 |
| Carneros Lower (Ranch 81) | 9/6/26 | 0315 | 46.8 1.9 | 92 0 | 44.5 2.0 | 0.0 0.2 | N | 0 | 0.0 1.3 | 0.00 | 0.00 | 53.4 0.6 | 46.8 1.4 |
| Toyon Remote 1 | 9/6/26 | 0315 | 47.2 0.6 | - | - | - | - | - | - | - | 50.0 0.0 | 45.6 0.5 |
| Toyon Remote 2 | 9/6/26 | 0315 | 45.7 0.3 | - | - | - | - | - | - | - | 49.2 0.2 | 44.7 0.4 |
| Toyon Remote 3 | 9/6/26 | 0315 | 46.6 0.9 | - | - | - | - | - | - | - | 49.1 1.4 | 46.2 0.7 |
| Max | 58.0 | 100 | 50.7 | 2.1 | - | 5.4 | 0.00 | 0.00 | 60.5 | 55.1 | ||
| Avg | 49.1 | 86 | 41.9 | 0.8 | - | 2.1 | 0.00 | - | - | - | ||
| Min | 42.6 | 0 | -64.9 | 0.0 | - | 0.0 | 0.00 | 0.00 | 46.2 | 42.5 |